createdAt,value
2019-03-23T02:23:18.390Z,15.03
2019-03-23T02:26:25.821Z,16.10
2019-03-23T02:29:33.274Z,15.78
2019-03-23T02:32:41.975Z,15.67
2019-03-23T02:35:49.573Z,15.67
2019-03-23T02:38:57.016Z,15.40
2019-03-23T02:42:04.473Z,15.72
2019-03-23T02:45:12.249Z,15.53
2019-03-23T02:48:19.702Z,15.73
2019-03-23T02:51:27.155Z,16.53
2019-03-23T02:54:34.613Z,17.43
2019-03-23T03:02:12.063Z,18.97
2019-03-23T03:05:19.526Z,20.33
2019-03-23T03:08:27.027Z,20.03
2019-03-23T03:11:34.473Z,19.53
2019-03-23T03:14:42.119Z,17.17
2019-03-23T03:17:49.666Z,20.70
2019-03-23T03:20:57.088Z,21.70
2019-03-23T03:24:04.642Z,18.60
2019-03-23T03:27:12.228Z,19.82
2019-03-23T03:30:19.715Z,17.82
2019-03-23T03:33:27.218Z,18.77
2019-03-23T03:36:34.682Z,17.77
2019-03-23T03:39:42.315Z,18.27
2019-03-23T03:42:49.882Z,19.75
2019-03-23T03:45:57.367Z,19.27
2019-03-23T03:49:12.439Z,18.00
2019-03-23T03:52:13.898Z,19.42
2019-03-23T03:55:21.589Z,18.73
2019-03-23T03:58:29.092Z,19.60
2019-03-23T04:01:36.582Z,20.43
2019-03-23T04:04:45.338Z,20.52
2019-03-23T04:07:52.805Z,18.07
2019-03-23T04:11:00.297Z,19.32
2019-03-23T04:14:07.828Z,16.45
2019-03-23T04:17:15.308Z,18.60
2019-03-23T04:20:22.721Z,22.27
2019-03-23T04:23:30.231Z,23.83
2019-03-23T04:26:39.291Z,22.80
2019-03-23T04:29:46.824Z,19.40
2019-03-23T04:32:54.321Z,20.50
2019-03-23T04:36:01.795Z,17.42
2019-03-23T04:39:09.305Z,18.87
2019-03-23T04:42:16.703Z,17.48
2019-03-23T04:45:24.135Z,15.95
2019-03-23T04:48:31.523Z,18.05
2019-03-23T04:51:39.014Z,16.82
2019-03-23T04:54:46.477Z,18.23
2019-03-23T04:57:53.939Z,18.17
2019-03-23T05:09:48.281Z,16.30
2019-03-23T05:12:55.812Z,16.73
2019-03-23T05:16:03.316Z,17.27
2019-03-23T05:19:10.813Z,17.15
2019-03-23T05:22:18.404Z,16.50
2019-03-23T05:25:27.070Z,15.13
2019-03-23T05:28:34.551Z,14.75
2019-03-23T05:31:42.185Z,15.43
2019-03-23T05:34:49.613Z,15.38
2019-03-23T05:37:57.093Z,17.25
2019-03-23T05:41:04.596Z,15.70
2019-03-23T05:44:12.037Z,17.02
2019-03-23T05:47:19.529Z,17.62
2019-03-23T05:50:27.100Z,16.70
2019-03-23T05:53:34.617Z,16.82
2019-03-23T05:56:42.269Z,15.93
2019-03-23T05:59:49.763Z,22.20
2019-03-23T06:02:57.265Z,16.87
2019-03-23T06:06:04.847Z,16.73
2019-03-23T06:09:12.351Z,16.42
2019-03-23T06:12:19.854Z,16.32
2019-03-23T06:15:27.313Z,16.52
2019-03-23T06:18:35.022Z,16.77
2019-03-23T06:21:45.321Z,15.30
2019-03-23T06:24:52.804Z,15.73
2019-03-23T06:28:00.268Z,13.63
2019-03-23T06:31:07.827Z,15.30
2019-03-23T06:34:15.294Z,15.13
2019-03-23T06:37:22.827Z,15.63
2019-03-23T06:40:31.192Z,12.33
2019-03-23T06:43:39.325Z,20.13
2019-03-23T06:46:46.833Z,13.37
2019-03-23T06:49:54.258Z,13.60
2019-03-23T06:53:02.385Z,15.77
2019-03-23T06:56:10.584Z,13.80
2019-03-23T06:59:18.178Z,12.77
2019-03-23T07:02:26.453Z,15.20
2019-03-23T07:05:33.916Z,12.70
2019-03-23T07:08:44.039Z,12.27
2019-03-23T07:11:52.611Z,13.57
2019-03-23T07:15:00.420Z,14.70
2019-03-23T07:18:07.946Z,12.10
2019-03-23T07:21:15.460Z,13.90
2019-03-23T07:24:23.278Z,12.37
2019-03-23T07:27:31.111Z,12.20
2019-03-23T07:30:38.760Z,9.97
2019-03-23T07:33:46.275Z,10.33
2019-03-23T07:36:54.238Z,10.67
2019-03-23T07:40:02.467Z,10.30
2019-03-23T07:43:09.944Z,9.90
2019-03-23T07:46:17.457Z,10.30
2019-03-23T07:49:24.877Z,9.73
2019-03-23T07:52:33.476Z,10.77
2019-03-23T07:55:44.754Z,10.07
2019-03-23T07:58:52.593Z,9.37
2019-03-23T08:02:00.104Z,9.37
2019-03-23T08:05:08.284Z,10.13
2019-03-23T08:08:16.086Z,9.07
2019-03-23T08:11:23.854Z,9.27
2019-03-23T08:14:31.882Z,9.33
2019-03-23T08:17:39.694Z,8.87
2019-03-23T08:20:47.256Z,9.13
2019-03-23T08:23:54.900Z,9.17
2019-03-23T08:27:04.946Z,8.87
2019-03-23T08:30:12.994Z,8.87
2019-03-23T08:33:20.511Z,7.97
2019-03-23T08:36:29.007Z,8.53
2019-03-23T08:39:36.792Z,8.17
2019-03-23T08:42:46.660Z,8.10
2019-03-23T08:45:54.720Z,7.87
2019-03-23T08:49:02.125Z,7.67
2019-03-23T08:52:09.691Z,8.27
2019-03-23T08:55:21.889Z,8.37
2019-03-23T08:58:31.485Z,7.73
2019-03-23T09:01:39.220Z,8.10
2019-03-23T09:04:46.797Z,7.60
2019-03-23T09:07:54.210Z,7.23
2019-03-23T09:11:02.384Z,7.27
2019-03-23T09:14:09.900Z,7.23
2019-03-23T09:17:17.664Z,6.70
2019-03-23T09:20:25.554Z,6.97
2019-03-23T09:23:33.058Z,7.53
2019-03-23T09:26:42.949Z,7.73
2019-03-23T09:29:50.946Z,7.10
2019-03-23T09:32:59.331Z,6.47
2019-03-23T09:36:06.847Z,6.87
2019-03-23T09:39:14.528Z,7.23
2019-03-23T09:42:22.260Z,6.23
2019-03-23T09:45:30.071Z,6.63
2019-03-23T09:48:37.520Z,7.13
2019-03-23T09:51:48.179Z,7.73
2019-03-23T09:54:55.690Z,8.87
2019-03-23T09:58:03.158Z,9.03
2019-03-23T10:01:10.669Z,9.77
2019-03-23T10:04:18.159Z,7.90
2019-03-23T10:07:25.838Z,9.80
2019-03-23T10:10:33.873Z,9.03
2019-03-23T10:13:41.700Z,9.57
2019-03-23T10:16:49.696Z,10.33
2019-03-23T10:19:57.761Z,10.80
2019-03-23T10:23:05.404Z,10.20
2019-03-23T10:26:13.233Z,10.37
2019-03-23T10:29:20.669Z,10.37
2019-03-23T10:32:28.517Z,10.60
2019-03-23T10:35:36.087Z,9.67
2019-03-23T10:38:43.970Z,11.30
2019-03-23T10:41:51.931Z,11.10
2019-03-23T10:44:59.801Z,10.33
2019-03-23T10:48:07.213Z,10.97
2019-03-23T10:51:14.718Z,11.00
2019-03-23T10:54:22.165Z,10.00
2019-03-23T10:57:32.686Z,11.27
2019-03-23T11:00:40.331Z,9.63
2019-03-23T11:03:48.689Z,9.13
2019-03-23T11:06:56.650Z,8.93
2019-03-23T11:10:04.246Z,10.40
2019-03-23T11:13:11.771Z,10.73
2019-03-23T11:16:19.250Z,11.20
2019-03-23T12:45:38.932Z,14.57
2019-03-23T14:03:39.291Z,22.27
2019-03-23T14:06:46.760Z,24.77
2019-03-23T14:09:54.230Z,22.73
2019-03-23T14:13:04.840Z,24.70
2019-03-23T14:16:12.254Z,25.47
2019-03-23T14:39:41.890Z,27.40
2019-03-23T14:42:49.317Z,26.77
2019-03-23T14:45:56.826Z,28.53
2019-03-23T14:49:04.519Z,28.03
2019-03-23T14:52:12.016Z,27.37
2019-03-23T14:55:19.525Z,27.10
2019-03-23T18:06:05.399Z,18.97
2019-03-23T18:35:25.461Z,34.83
2019-03-23T18:38:35.955Z,20.17
2019-03-23T18:41:44.934Z,31.67
2019-03-23T18:44:53.696Z,18.40
2019-03-23T18:48:01.186Z,16.17
2019-03-23T18:51:08.578Z,16.53
2019-03-23T18:54:16.284Z,18.03
2019-03-23T18:57:23.778Z,20.43
2019-03-23T19:00:36.158Z,16.67
2019-03-23T19:03:45.922Z,17.13
2019-03-23T19:06:53.299Z,16.20
2019-03-23T19:10:00.717Z,14.23
2019-03-23T19:13:19.899Z,14.83
2019-03-23T19:16:27.372Z,14.43
2019-03-23T19:19:34.747Z,14.47
2019-03-23T19:22:47.003Z,13.20
2019-03-23T19:25:54.418Z,13.57
2019-03-23T19:29:01.917Z,13.43
2019-03-23T19:32:12.950Z,14.00
2019-03-23T19:35:20.434Z,14.67
2019-03-23T19:38:27.829Z,13.97
2019-03-23T19:41:35.298Z,15.60
2019-03-23T19:44:44.463Z,14.43
2019-03-23T19:47:52.024Z,13.93
2019-03-23T19:50:59.519Z,13.97
2019-03-23T19:54:18.762Z,12.40
2019-03-23T19:57:26.473Z,13.13
2019-03-23T20:00:34.115Z,13.27
2019-03-23T20:03:42.629Z,12.97
2019-03-23T20:06:50.267Z,13.63
2019-03-23T20:09:58.095Z,13.93
2019-03-23T20:13:05.977Z,13.73
2019-03-23T20:16:13.721Z,15.10
2019-03-23T20:19:21.576Z,14.83
2019-03-23T20:22:29.430Z,15.00
2019-03-23T20:25:39.533Z,13.23
2019-03-23T20:28:47.060Z,14.23
2019-03-23T20:31:54.623Z,16.80
2019-03-23T20:35:02.071Z,14.67
2019-03-23T20:38:09.596Z,16.37
2019-03-23T20:41:17.560Z,16.47
2019-03-23T20:44:25.087Z,19.50
2019-03-23T20:47:33.336Z,16.43
2019-03-23T20:50:42.277Z,16.77
2019-03-23T20:53:49.795Z,15.43
2019-03-23T20:56:57.311Z,15.90
2019-03-23T21:00:05.227Z,15.73
2019-03-23T21:03:12.930Z,16.63
2019-03-23T21:06:20.529Z,16.60
2019-03-23T21:09:33.811Z,18.37
2019-03-23T21:12:41.686Z,17.87
2019-03-23T21:15:50.019Z,17.23
2019-03-23T21:18:57.591Z,17.43
2019-03-23T21:22:05.151Z,17.23
2019-03-23T21:25:12.848Z,18.47
2019-03-23T21:28:20.639Z,18.30
2019-03-23T21:31:28.276Z,18.57
2019-03-23T21:34:36.023Z,19.37
2019-03-23T21:37:43.756Z,16.47
2019-03-23T21:40:54.351Z,18.30
2019-03-23T21:44:01.888Z,18.07
2019-03-23T21:47:12.935Z,17.73
2019-03-23T21:50:20.608Z,18.63
2019-03-23T21:53:28.348Z,18.13
2019-03-23T21:56:36.170Z,18.20
2019-03-23T21:59:44.269Z,18.93
2019-03-23T22:02:52.443Z,19.50
2019-03-23T22:06:00.398Z,19.43
2019-03-23T22:09:09.357Z,20.50
2019-03-23T22:12:19.644Z,19.57
2019-03-23T22:15:30.643Z,21.77
2019-03-23T22:18:38.519Z,19.23
2019-03-23T22:21:46.512Z,21.23
2019-03-23T22:24:54.362Z,20.07
2019-03-23T22:28:02.284Z,19.17
2019-03-23T22:31:10.306Z,19.70
2019-03-23T22:34:18.633Z,20.53
2019-03-23T22:37:27.015Z,19.87
2019-03-23T22:40:35.032Z,18.87
2019-03-23T22:43:43.654Z,18.30
2019-03-23T22:46:51.797Z,18.33
2019-03-23T22:49:59.872Z,18.23
2019-03-23T22:53:07.942Z,18.83
2019-03-23T22:56:15.978Z,20.03
2019-03-23T22:59:24.112Z,18.30
2019-03-23T23:02:32.452Z,20.27
2019-03-23T23:05:40.523Z,18.97
